Time;durP1;ratioP1;P1;durP2;ratioP2;P2;SDS_P1;SDS_P2;PMS_P1;PMS_P2;Temp;Humidity;BMP_temperature;BMP_pressure;BME280_temperature;BME280_humidity;BME280_pressure;Samples;Min_cycle;Max_cycle;Signal;HPM_P1;HPM_P2
2022/10/09 00:01:43;;;;;;;8.38;4.65;;;;;;;9.02;79.90;100747.08;1652533;86;21072;-69
2022/10/09 00:04:15;;;;;;;8.20;4.40;;;;;;;8.98;80.01;100742.49;1681622;84;21056;-69
2022/10/09 00:06:45;;;;;;;7.87;3.90;;;;;;;8.97;80.21;100743.52;1674574;85;21043;-71
2022/10/09 00:09:17;;;;;;;7.00;3.50;;;;;;;8.95;80.20;100743.36;1666189;85;21074;-69
2022/10/09 00:11:47;;;;;;;6.08;3.85;;;;;;;8.89;80.20;100743.56;1681001;84;21491;-68
2022/10/09 00:14:17;;;;;;;9.30;4.17;;;;;;;8.86;80.25;100743.92;1678979;85;21039;-69
2022/10/09 00:16:49;;;;;;;7.65;4.10;;;;;;;8.83;80.57;100741.55;1670116;85;21087;-71
2022/10/09 00:19:20;;;;;;;7.62;4.15;;;;;;;8.82;80.83;100741.20;1661155;86;21109;-70
2022/10/09 00:21:50;;;;;;;7.72;4.30;;;;;;;8.81;80.94;100732.16;1661123;86;21063;-69
2022/10/09 00:24:19;;;;;;;6.85;4.55;;;;;;;8.80;80.98;100724.14;1681585;85;21136;-71
2022/10/09 00:26:48;;;;;;;7.20;3.60;;;;;;;8.78;80.93;100716.64;1665248;85;21080;-68
2022/10/09 00:29:18;;;;;;;9.03;3.58;;;;;;;8.77;80.96;100717.67;1668886;85;21067;-68
2022/10/09 00:31:49;;;;;;;6.65;3.70;;;;;;;8.74;81.16;100712.05;1680766;85;21060;-70
2022/10/09 00:34:19;;;;;;;7.70;4.47;;;;;;;8.72;81.15;100713.25;1678740;85;21082;-70
2022/10/09 00:36:48;;;;;;;7.17;4.15;;;;;;;8.66;81.32;100705.25;1672079;85;21049;-71
2022/10/09 00:39:17;;;;;;;8.68;4.10;;;;;;;8.65;81.54;100709.53;1669364;85;21005;-67
2022/10/09 00:41:47;;;;;;;6.92;3.95;;;;;;;8.63;81.57;100705.61;1686659;84;21045;-70
2022/10/09 00:44:53;;;;;;;7.00;3.95;;;;;;;8.61;81.56;100715.86;1676001;83;21492;-70
2022/10/09 00:47:43;;;;;;;8.15;3.12;;;;;;;8.58;81.53;100710.76;1663448;85;21079;-70
2022/10/09 00:50:18;;;;;;;8.25;4.00;;;;;;;8.56;81.53;100707.34;1658514;85;21057;-69
2022/10/09 00:52:52;;;;;;;7.60;4.35;;;;;;;8.54;81.65;100705.31;1685440;83;21477;-69
2022/10/09 00:55:21;;;;;;;8.00;4.37;;;;;;;8.51;81.72;100699.69;1661727;85;20999;-69
2022/10/09 00:57:54;;;;;;;8.35;4.47;;;;;;;8.47;81.75;100691.52;1683941;83;21044;-69
2022/10/09 01:00:25;;;;;;;7.33;4.37;;;;;;;8.44;81.91;100695.93;1664119;84;21115;-71
2022/10/09 01:02:55;;;;;;;9.55;5.00;;;;;;;8.44;82.09;100690.47;1681456;84;21045;-69
2022/10/09 01:05:31;;;;;;;6.65;4.67;;;;;;;8.43;82.20;100688.77;1672506;85;21037;-70
2022/10/09 01:08:10;;;;;;;10.72;4.58;;;;;;;8.44;82.28;100692.34;1648128;85;21611;-69
2022/10/09 01:10:51;;;;;;;6.45;4.20;;;;;;;8.43;82.26;100687.91;1656507;85;21048;-69
2022/10/09 01:13:48;;;;;;;7.58;4.70;;;;;;;8.46;82.23;100683.50;1660974;84;21045;-70
2022/10/09 01:16:22;;;;;;;8.73;4.60;;;;;;;8.44;82.21;100689.10;1675795;85;21279;-69
2022/10/09 01:19:17;;;;;;;10.50;5.33;;;;;;;8.41;82.28;100686.73;1672390;84;21047;-71
2022/10/09 01:21:58;;;;;;;8.55;5.28;;;;;;;8.41;82.29;100683.14;1667397;85;21119;-70
2022/10/09 01:24:37;;;;;;;11.88;5.20;;;;;;;8.40;82.35;100686.39;1597982;87;21109;-68
2022/10/09 01:27:26;;;;;;;9.70;5.47;;;;;;;8.39;82.39;100680.59;1667372;85;21104;-70
2022/10/09 01:29:59;;;;;;;11.60;5.50;;;;;;;8.40;82.44;100680.08;1667801;85;21031;-69
2022/10/09 01:32:32;;;;;;;9.90;5.37;;;;;;;8.36;82.41;100677.36;1656946;85;21015;-69
2022/10/09 01:35:01;;;;;;;10.48;4.97;;;;;;;8.32;82.50;100671.37;1668038;85;21074;-69
2022/10/09 01:37:30;;;;;;;13.55;5.47;;;;;;;8.30;82.50;100673.43;1656125;85;21079;-70
2022/10/09 01:40:00;;;;;;;11.63;5.50;;;;;;;8.28;82.64;100675.48;1667314;85;21473;-70
2022/10/09 01:42:30;;;;;;;12.85;5.55;;;;;;;8.29;82.83;100677.19;1656611;85;21039;-70
2022/10/09 01:44:59;;;;;;;11.97;5.58;;;;;;;8.27;82.81;100680.09;1667901;85;21075;-69
2022/10/09 01:47:29;;;;;;;8.53;5.47;;;;;;;8.25;82.88;100679.41;1683144;84;21080;-68
2022/10/09 01:50:26;;;;;;;10.40;5.20;;;;;;;8.27;83.00;100686.92;1672504;85;21053;-70
2022/10/09 01:53:00;;;;;;;10.98;5.55;;;;;;;8.25;83.06;100684.87;1656498;85;21027;-70
2022/10/09 01:55:35;;;;;;;10.78;5.12;;;;;;;8.24;83.10;100679.59;1678544;85;21122;-68
2022/10/09 01:58:40;;;;;;;11.78;5.20;;;;;;;8.25;83.08;100682.66;1667922;84;21044;-68
2022/10/09 02:01:19;;;;;;;7.97;4.80;;;;;;;8.28;83.13;100676.84;1656836;85;21524;-68
2022/10/09 02:03:50;;;;;;;10.08;5.37;;;;;;;8.30;83.10;100672.58;1662132;86;21071;-71
2022/10/09 02:06:20;;;;;;;9.43;5.20;;;;;;;8.26;83.05;100679.75;1666536;85;21065;-69
2022/10/09 02:08:53;;;;;;;9.40;5.40;;;;;;;8.24;82.96;100675.50;1662815;84;21487;-69
2022/10/09 02:11:28;;;;;;;10.72;6.17;;;;;;;8.23;82.94;100680.63;1661558;85;21091;-68
2022/10/09 02:13:59;;;;;;;13.98;7.25;;;;;;;8.21;83.03;100678.06;1672177;84;21164;-68
2022/10/09 02:16:41;;;;;;;14.18;7.58;;;;;;;8.23;82.99;100680.63;1673178;85;21071;-71
2022/10/09 02:19:24;;;;;;;16.42;9.40;;;;;;;8.21;82.92;100678.06;1663864;85;21051;-69
2022/10/09 02:22:15;;;;;;;14.05;8.73;;;;;;;8.20;82.91;100676.36;1645842;85;21027;-69
2022/10/09 02:24:44;;;;;;;19.32;8.78;;;;;;;8.18;82.83;100673.47;1656131;85;21083;-69
2022/10/09 02:27:14;;;;;;;12.03;7.40;;;;;;;8.14;82.79;100677.58;1656115;86;21024;-69
2022/10/09 02:29:48;;;;;;;14.38;8.93;;;;;;;8.11;82.77;100680.66;1678825;85;21045;-69
2022/10/09 02:32:17;;;;;;;19.30;9.63;;;;;;;8.05;82.77;100678.63;1656274;85;21098;-70
2022/10/09 02:34:47;;;;;;;14.70;9.13;;;;;;;8.03;82.85;100672.49;1657981;85;21148;-70
2022/10/09 02:37:15;;;;;;;16.37;9.20;;;;;;;7.99;82.92;100681.54;1655895;86;21031;-69
2022/10/09 02:39:45;;;;;;;20.17;10.60;;;;;;;7.96;82.95;100676.44;1656531;85;21792;-67
2022/10/09 02:42:14;;;;;;;17.07;10.08;;;;;;;7.95;83.03;100673.36;1636691;86;21096;-69
2022/10/09 02:44:43;;;;;;;17.75;9.28;;;;;;;7.95;83.10;100675.58;1660484;85;21083;-69
2022/10/09 02:47:13;;;;;;;16.32;9.48;;;;;;;7.98;83.01;100680.35;1669332;85;21067;-70
2022/10/09 02:49:44;;;;;;;18.45;10.30;;;;;;;7.95;82.92;100672.00;1683595;85;21069;-68
2022/10/09 02:52:13;;;;;;;17.35;9.48;;;;;;;7.91;82.93;100663.31;1632225;87;21047;-69
2022/10/09 02:54:43;;;;;;;15.75;8.70;;;;;;;7.90;83.01;100668.43;1667737;85;21044;-69
2022/10/09 02:57:13;;;;;;;15.03;9.00;;;;;;;7.91;82.94;100661.95;1658169;85;21524;-70
2022/10/09 02:59:42;;;;;;;16.10;8.28;;;;;;;7.89;82.91;100665.37;1659793;85;21259;-70
2022/10/09 03:02:12;;;;;;;15.18;8.90;;;;;;;7.89;82.99;100661.27;1653140;86;21114;-68
2022/10/09 03:04:43;;;;;;;15.83;8.90;;;;;;;7.89;83.02;100660.42;1656751;86;21461;-69
2022/10/09 03:07:13;;;;;;;16.15;8.30;;;;;;;7.85;83.13;100655.83;1657083;86;21071;-69
2022/10/09 03:09:44;;;;;;;14.18;8.28;;;;;;;7.82;83.24;100658.90;1660367;86;21029;-70
2022/10/09 03:12:19;;;;;;;15.38;7.78;;;;;;;7.79;83.35;100655.64;1661301;85;21116;-70
2022/10/09 03:14:47;;;;;;;14.60;7.37;;;;;;;7.78;83.29;100659.39;1664327;86;21033;-68
2022/10/09 03:17:16;;;;;;;14.53;7.35;;;;;;;7.76;83.23;100654.11;1652605;86;21048;-70
2022/10/09 03:19:45;;;;;;;14.47;7.20;;;;;;;7.76;83.29;100650.53;1651980;86;21023;-69
2022/10/09 03:22:15;;;;;;;15.38;7.03;;;;;;;7.75;83.27;100650.19;1652053;85;21117;-70
2022/10/09 03:24:45;;;;;;;13.43;7.30;;;;;;;7.74;83.22;100643.03;1663161;86;21128;-68
2022/10/09 03:27:14;;;;;;;12.50;6.30;;;;;;;7.72;83.18;100642.36;1654069;86;21046;-69
2022/10/09 03:29:44;;;;;;;11.22;6.10;;;;;;;7.69;83.19;100642.19;1645928;86;21083;-70
2022/10/09 03:32:15;;;;;;;10.60;6.30;;;;;;;7.65;83.18;100646.28;1667488;86;21429;-69
2022/10/09 03:34:47;;;;;;;11.97;6.67;;;;;;;7.59;83.31;100647.83;1664616;85;21043;-70
2022/10/09 03:37:17;;;;;;;12.98;6.83;;;;;;;7.56;83.51;100647.32;1665750;86;21045;-68
2022/10/09 03:39:47;;;;;;;14.50;6.85;;;;;;;7.53;83.62;100649.03;1663974;85;21448;-69
2022/10/09 03:42:16;;;;;;;10.58;6.22;;;;;;;7.50;83.81;100643.41;1658130;85;21050;-70
2022/10/09 03:44:45;;;;;;;12.37;6.83;;;;;;;7.51;83.90;100645.62;1632812;87;21051;-70
2022/10/09 03:47:16;;;;;;;13.15;6.30;;;;;;;7.52;83.88;100645.45;1650248;86;21159;-69
2022/10/09 03:49:46;;;;;;;13.03;6.42;;;;;;;7.56;83.89;100641.87;1662604;85;21001;-68
2022/10/09 03:52:17;;;;;;;16.55;7.17;;;;;;;7.60;83.86;100635.05;1668067;86;21025;-70
2022/10/09 03:54:47;;;;;;;16.48;8.08;;;;;;;7.58;83.68;100634.37;1639223;86;21071;-69
2022/10/09 03:57:17;;;;;;;14.78;7.60;;;;;;;7.55;83.57;100636.08;1653109;86;21023;-68
2022/10/09 03:59:47;;;;;;;14.65;6.85;;;;;;;7.51;83.52;100631.48;1659055;85;21074;-69
2022/10/09 04:02:16;;;;;;;12.53;6.35;;;;;;;7.50;83.49;100632.50;1663461;85;21848;-70
2022/10/09 04:04:46;;;;;;;11.78;6.50;;;;;;;7.46;83.46;100639.33;1656484;85;21477;-72
2022/10/09 04:07:17;;;;;;;12.10;6.75;;;;;;;7.46;83.58;100638.47;1663334;85;21507;-70
2022/10/09 04:09:48;;;;;;;15.53;7.60;;;;;;;7.46;83.62;100641.20;1665037;85;21070;-70
2022/10/09 04:12:21;;;;;;;15.53;7.87;;;;;;;7.46;83.63;100643.92;1664929;85;21545;-70
2022/10/09 04:14:50;;;;;;;12.47;7.17;;;;;;;7.46;83.62;100639.33;1676218;85;21483;-69
2022/10/09 04:17:21;;;;;;;13.93;6.87;;;;;;;7.49;83.66;100639.49;1676700;85;21105;-69
2022/10/09 04:19:52;;;;;;;12.70;7.00;;;;;;;7.48;83.65;100640.00;1676547;85;21108;-70
2022/10/09 04:22:22;;;;;;;11.68;6.92;;;;;;;7.46;83.72;100643.92;1669922;85;21114;-70
2022/10/09 04:24:51;;;;;;;14.90;7.97;;;;;;;7.42;83.75;100639.84;1658613;85;21125;-70
2022/10/09 04:27:21;;;;;;;14.87;7.67;;;;;;;7.39;83.83;100633.36;1664825;85;21447;-69
2022/10/09 04:29:52;;;;;;;15.20;7.75;;;;;;;7.38;84.04;100630.30;1671810;85;21495;-70
2022/10/09 04:32:22;;;;;;;12.05;7.83;;;;;;;7.40;84.18;100630.47;1656267;85;21567;-69
2022/10/09 04:34:51;;;;;;;14.93;7.83;;;;;;;7.41;84.22;100634.90;1655823;85;21503;-70
2022/10/09 04:37:20;;;;;;;15.28;8.28;;;;;;;7.40;84.23;100633.70;1655912;85;21019;-69
2022/10/09 04:39:50;;;;;;;13.32;7.95;;;;;;;7.39;84.30;100633.36;1661974;85;21049;-71
2022/10/09 04:42:19;;;;;;;18.52;8.03;;;;;;;7.39;84.35;100637.45;1665806;85;21083;-69
2022/10/09 04:44:48;;;;;;;14.85;6.90;;;;;;;7.39;84.40;100637.45;1657431;85;21047;-68
2022/10/09 04:47:19;;;;;;;16.60;8.58;;;;;;;7.39;84.48;100641.55;1656282;85;21023;-70
2022/10/09 04:49:49;;;;;;;13.68;8.13;;;;;;;7.40;84.68;100641.88;1655783;85;21079;-70
2022/10/09 04:52:19;;;;;;;18.57;8.65;;;;;;;7.43;84.88;100642.39;1655824;85;21059;-70
2022/10/09 04:54:49;;;;;;;17.95;7.78;;;;;;;7.51;85.06;100644.27;1655930;86;21070;-68
2022/10/09 04:57:19;;;;;;;13.28;7.35;;;;;;;7.54;85.02;100645.28;1656419;85;21109;-70
2022/10/09 04:59:49;;;;;;;16.20;6.37;;;;;;;7.55;85.07;100656.02;1657059;85;21057;-70
2022/10/09 05:02:19;;;;;;;16.90;7.05;;;;;;;7.61;85.16;100658.05;1686564;84;21041;-70
2022/10/09 05:04:48;;;;;;;14.43;6.70;;;;;;;7.69;85.19;100658.55;1657947;83;21152;-71
2022/10/09 05:07:17;;;;;;;13.68;7.37;;;;;;;7.78;85.25;100658.88;1666914;85;21118;-70
2022/10/09 05:09:46;;;;;;;15.53;7.20;;;;;;;7.84;85.20;100654.13;1686299;84;21093;-70
2022/10/09 05:12:16;;;;;;;19.27;8.20;;;;;;;7.87;85.18;100644.23;1667309;85;21090;-70
2022/10/09 05:14:45;;;;;;;16.07;7.97;;;;;;;7.92;85.22;100645.92;1661184;85;21115;-70
2022/10/09 05:17:17;;;;;;;15.72;7.87;;;;;;;8.00;85.28;100642.31;1661727;85;21070;-70
2022/10/09 05:19:51;;;;;;;14.40;7.35;;;;;;;8.06;85.25;100640.77;1663016;85;21568;-70
2022/10/09 05:22:25;;;;;;;13.00;7.72;;;;;;;8.11;85.36;100636.99;1661140;85;21039;-70
2022/10/09 05:24:54;;;;;;;19.32;8.13;;;;;;;8.16;85.46;100640.05;1682542;85;21034;-70
2022/10/09 05:27:24;;;;;;;18.02;7.80;;;;;;;8.20;85.62;100644.97;1661107;85;21075;-70
2022/10/09 05:29:55;;;;;;;16.32;7.37;;;;;;;8.27;85.73;100647.84;1661466;85;21119;-69
2022/10/09 05:32:24;;;;;;;13.72;7.92;;;;;;;8.35;85.66;100641.02;1664867;85;21072;-69
2022/10/09 05:34:55;;;;;;;14.35;8.63;;;;;;;8.46;85.56;100634.34;1642455;85;21499;-70
2022/10/09 05:37:24;;;;;;;16.48;7.78;;;;;;;8.56;85.57;100638.56;1642446;86;21505;-70
2022/10/09 05:39:53;;;;;;;14.28;8.48;;;;;;;8.67;85.49;100645.50;1672029;85;21060;-69
2022/10/09 05:42:23;;;;;;;14.63;7.87;;;;;;;8.76;85.26;100644.93;1661216;85;21066;-69
2022/10/09 05:44:53;;;;;;;21.00;8.90;;;;;;;8.85;85.02;100650.16;1684654;85;21538;-71
2022/10/09 05:47:24;;;;;;;19.32;8.48;;;;;;;8.94;84.65;100652.33;1679780;83;21494;-69
2022/10/09 05:49:54;;;;;;;13.20;8.28;;;;;;;9.02;84.40;100655.00;1666539;85;21077;-70
2022/10/09 05:52:23;;;;;;;15.80;8.95;;;;;;;9.08;84.12;100649.33;1686164;83;21025;-71
2022/10/09 05:54:52;;;;;;;18.87;8.75;;;;;;;9.15;83.89;100658.02;1675252;85;21039;-70
2022/10/09 05:57:22;;;;;;;22.52;8.90;;;;;;;9.21;83.60;100656.44;1661429;85;21178;-69
2022/10/09 05:59:51;;;;;;;19.42;8.80;;;;;;;9.29;83.24;100654.16;1674144;84;21446;-70
2022/10/09 06:02:21;;;;;;;15.95;7.97;;;;;;;9.35;82.91;100653.42;1689372;85;21177;-70
2022/10/09 06:04:50;;;;;;;15.72;8.20;;;;;;;9.39;82.68;100656.97;1627660;86;21122;-70
2022/10/09 06:07:20;;;;;;;16.65;9.13;;;;;;;9.43;82.48;100656.09;1673191;84;21070;-69
2022/10/09 06:09:51;;;;;;;16.50;8.88;;;;;;;9.46;82.39;100652.98;1673888;84;21078;-70
2022/10/09 06:12:21;;;;;;;15.32;8.35;;;;;;;9.49;82.15;100652.09;1673250;84;21042;-70
2022/10/09 06:14:51;;;;;;;15.32;8.20;;;;;;;9.50;82.06;100651.06;1673445;84;21010;-70
2022/10/09 06:17:21;;;;;;;15.68;8.50;;;;;;;9.52;82.05;100663.19;1676285;84;21494;-69
2022/10/09 06:19:51;;;;;;;16.25;8.40;;;;;;;9.55;82.12;100650.51;1682005;84;21090;-70
2022/10/09 06:22:21;;;;;;;21.45;8.48;;;;;;;9.56;82.13;100649.98;1670750;85;21035;-71
2022/10/09 06:24:50;;;;;;;20.37;9.13;;;;;;;9.59;82.16;100647.73;1670917;85;21085;-69
2022/10/09 06:27:21;;;;;;;18.23;8.35;;;;;;;9.64;82.11;100660.34;1670969;85;21086;-71
2022/10/09 06:29:52;;;;;;;18.40;8.50;;;;;;;9.69;81.97;100652.94;1670886;85;21544;-70
2022/10/09 06:32:21;;;;;;;16.80;8.83;;;;;;;9.75;81.83;100661.28;1687165;85;21092;-70
2022/10/09 06:34:52;;;;;;;15.23;8.00;;;;;;;9.81;81.80;100657.81;1671014;85;21502;-70
2022/10/09 06:37:23;;;;;;;18.55;8.23;;;;;;;9.85;81.77;100657.77;1670970;85;21501;-71
2022/10/09 06:39:52;;;;;;;17.35;8.60;;;;;;;9.90;81.76;100663.20;1670718;85;21098;-68
2022/10/09 06:42:22;;;;;;;17.32;7.87;;;;;;;9.96;81.74;100659.71;1670820;85;21098;-70
2022/10/09 06:44:52;;;;;;;16.70;7.75;;;;;;;10.01;81.64;100654.00;1659425;85;21104;-69
2022/10/09 06:47:21;;;;;;;13.60;7.58;;;;;;;10.09;81.57;100654.43;1689399;84;21586;-70
2022/10/09 06:49:52;;;;;;;16.07;8.40;;;;;;;10.16;81.47;100661.70;1674297;85;21046;-69
2022/10/09 06:52:24;;;;;;;15.95;7.55;;;;;;;10.22;81.37;100664.23;1678514;84;21041;-69
2022/10/09 06:54:53;;;;;;;18.55;8.05;;;;;;;10.28;81.21;100662.11;1646393;86;21111;-68
2022/10/09 06:57:24;;;;;;;14.33;8.08;;;;;;;10.36;81.01;100659.79;1671042;85;21557;-70
2022/10/09 06:59:54;;;;;;;16.37;8.60;;;;;;;10.43;80.84;100655.28;1669362;85;21046;-69
2022/10/09 07:02:23;;;;;;;15.05;8.35;;;;;;;10.50;80.54;100657.59;1651444;85;21012;-71
2022/10/09 07:04:53;;;;;;;12.58;7.80;;;;;;;10.57;80.27;100658.52;1651437;86;21463;-68
2022/10/09 07:07:23;;;;;;;18.95;8.38;;;;;;;10.64;80.14;100658.61;1661226;86;21075;-70
2022/10/09 07:09:53;;;;;;;19.50;8.40;;;;;;;10.70;80.05;100646.87;1660492;86;21506;-70
2022/10/09 07:12:23;;;;;;;18.98;8.50;;;;;;;10.77;80.02;100652.77;1665566;86;21107;-69
2022/10/09 07:14:54;;;;;;;17.75;8.50;;;;;;;10.82;79.92;100650.81;1651735;87;21036;-70
2022/10/09 07:17:23;;;;;;;18.30;8.30;;;;;;;10.89;79.72;100650.89;1651511;87;21554;-69
2022/10/09 07:19:56;;;;;;;14.93;8.13;;;;;;;10.96;79.62;100654.55;1652760;86;21031;-71
2022/10/09 07:22:26;;;;;;;12.73;6.58;;;;;;;11.02;79.61;100643.66;1664735;86;21095;-69
2022/10/09 07:24:56;;;;;;;18.75;7.83;;;;;;;11.11;78.98;100641.14;1665089;85;21459;-70
2022/10/09 07:27:26;;;;;;;15.90;7.20;;;;;;;11.24;78.48;100634.09;1642306;85;21043;-69
2022/10/09 07:29:56;;;;;;;13.53;6.85;;;;;;;11.34;78.12;100634.61;1651484;86;21505;-70
2022/10/09 07:32:25;;;;;;;12.45;6.60;;;;;;;11.45;77.67;100627.22;1673524;85;21607;-70
2022/10/09 07:34:54;;;;;;;14.30;7.37;;;;;;;11.56;77.37;100628.57;1656965;86;21098;-69
2022/10/09 07:37:24;;;;;;;13.60;7.30;;;;;;;11.66;77.16;100627.17;1653577;86;21091;-69
2022/10/09 07:39:54;;;;;;;16.65;7.33;;;;;;;11.77;77.12;100625.81;1654206;86;21067;-70
2022/10/09 07:42:23;;;;;;;17.50;7.95;;;;;;;11.92;76.94;100634.82;1651359;86;21060;-69
2022/10/09 07:44:52;;;;;;;15.48;7.65;;;;;;;12.10;76.59;100632.08;1651281;85;21059;-71
2022/10/09 07:47:23;;;;;;;23.10;8.70;;;;;;;12.30;76.29;100627.02;1660526;85;21014;-70
2022/10/09 07:49:53;;;;;;;18.92;9.18;;;;;;;12.62;75.76;100623.28;1651655;85;21099;-69
2022/10/09 07:52:22;;;;;;;21.17;10.60;;;;;;;13.07;75.21;100627.25;1662388;86;21034;-70
2022/10/09 07:54:52;;;;;;;20.30;9.35;;;;;;;13.62;74.17;100623.30;1627712;88;21075;-69
2022/10/09 07:57:21;;;;;;;17.90;9.63;;;;;;;14.17;72.03;100621.14;1660338;85;21022;-71
2022/10/09 07:59:52;;;;;;;21.23;9.43;;;;;;;14.63;69.70;100629.00;1660459;86;21492;-69
2022/10/09 08:02:22;;;;;;;30.48;9.80;;;;;;;14.88;68.30;100623.04;1670006;85;21109;-68
2022/10/09 08:04:52;;;;;;;16.23;8.70;;;;;;;15.01;67.32;100620.23;1653320;85;21038;-69
2022/10/09 08:07:21;;;;;;;23.67;9.68;;;;;;;15.13;66.28;100618.99;1673784;85;21026;-69
2022/10/09 08:09:52;;;;;;;17.12;8.90;;;;;;;15.25;65.69;100623.27;1638821;86;21201;-69
2022/10/09 08:12:21;;;;;;;19.67;9.00;;;;;;;15.39;65.42;100618.81;1635391;86;21095;-69
2022/10/09 08:14:53;;;;;;;18.85;9.93;;;;;;;15.61;65.09;100616.57;1643552;86;21051;-69
2022/10/09 08:17:23;;;;;;;19.23;9.23;;;;;;;15.85;64.03;100611.56;1651298;86;21103;-68
2022/10/09 08:19:53;;;;;;;21.37;9.58;;;;;;;16.10;63.19;100610.14;1640955;86;21055;-69
2022/10/09 08:22:23;;;;;;;16.82;9.15;;;;;;;16.33;62.45;100610.03;1659579;86;21465;-69
2022/10/09 08:24:53;;;;;;;22.32;9.73;;;;;;;16.55;61.64;100612.63;1653217;85;21452;-68
2022/10/09 08:27:22;;;;;;;18.42;9.58;;;;;;;16.71;60.84;100609.27;1668386;85;21077;-69
2022/10/09 08:29:52;;;;;;;17.12;8.90;;;;;;;16.80;60.20;100607.86;1657988;85;21152;-69
2022/10/09 08:32:22;;;;;;;19.85;9.15;;;;;;;16.86;59.58;100607.47;1653377;86;21511;-69
2022/10/09 08:34:51;;;;;;;20.20;8.88;;;;;;;16.88;59.18;100610.84;1633877;86;21099;-70
2022/10/09 08:37:21;;;;;;;16.23;8.65;;;;;;;16.89;58.93;100608.92;1651310;86;21015;-70
2022/10/09 08:39:51;;;;;;;19.17;7.95;;;;;;;16.86;58.68;100607.47;1653479;86;21043;-70
2022/10/09 08:42:32;;;;;;;16.57;7.92;;;;;;;16.83;57.64;100598.79;1673743;84;21042;-70
2022/10/09 08:45:03;;;;;;;15.83;7.78;;;;;;;16.73;57.36;100596.04;1654513;86;21061;-71
2022/10/09 08:47:45;;;;;;;13.38;5.92;;;;;;;16.64;57.41;100587.72;1665620;86;21082;-71
2022/10/09 08:50:21;;;;;;;14.53;7.25;;;;;;;16.58;56.78;100579.51;1652525;86;21068;-72
2022/10/09 08:53:06;;;;;;;14.03;6.72;;;;;;;16.52;56.96;100577.67;1602617;88;21099;-70
2022/10/09 08:55:53;;;;;;;13.43;6.05;;;;;;;16.46;57.12;100575.30;1620552;88;21121;-70
2022/10/09 08:58:28;;;;;;;14.03;6.40;;;;;;;16.42;56.87;100566.63;1600854;88;21074;-69
2022/10/09 09:01:04;;;;;;;12.15;5.85;;;;;;;16.44;56.80;100561.70;1603977;88;21147;-73
2022/10/09 09:03:45;;;;;;;11.38;5.85;;;;;;;16.46;56.09;100555.94;1609847;88;21065;-71
2022/10/09 09:06:30;;;;;;;12.65;7.08;;;;;;;16.50;56.12;100568.23;1613923;88;21082;-70
2022/10/09 09:09:24;;;;;;;11.63;6.55;;;;;;;16.55;56.10;100574.44;1625388;87;21110;-69
2022/10/09 09:12:21;;;;;;;11.57;5.70;;;;;;;16.59;56.57;100574.28;1575046;89;21130;-71
2022/10/09 09:15:33;;;;;;;6.20;3.90;;;;;;;16.63;56.26;100577.73;1621863;87;21141;-71
2022/10/09 09:18:22;;;;;;;7.62;3.40;;;;;;;16.66;54.59;100573.15;1658122;85;21050;-70
2022/10/09 09:20:58;;;;;;;12.68;4.72;;;;;;;16.67;52.94;100569.84;1654817;84;21102;-69
2022/10/09 09:23:32;;;;;;;6.95;3.62;;;;;;;16.61;52.71;100566.05;1651423;86;21016;-71
2022/10/09 09:26:02;;;;;;;6.92;3.30;;;;;;;16.56;52.91;100565.91;1663283;85;21429;-83
2022/10/09 09:28:34;;;;;;;8.38;3.40;;;;;;;16.56;52.90;100557.61;1668342;86;21465;-73
2022/10/09 09:31:08;;;;;;;5.22;3.08;;;;;;;16.54;52.94;100565.30;1651347;85;21064;-73
2022/10/09 09:34:06;;;;;;;5.33;3.12;;;;;;;16.52;53.18;100564.69;1648993;86;21083;-73
2022/10/09 09:36:48;;;;;;;5.92;3.02;;;;;;;16.52;52.82;100561.92;1651735;86;21008;-72
2022/10/09 09:39:19;;;;;;;7.40;3.83;;;;;;;16.53;52.92;100558.08;1651224;86;21084;-69
2022/10/09 09:41:50;;;;;;;6.55;3.75;;;;;;;16.56;52.77;100557.61;1648552;86;21086;-71
2022/10/09 09:44:20;;;;;;;7.10;3.40;;;;;;;16.59;52.60;100564.60;1649442;86;21045;-73
2022/10/09 09:46:49;;;;;;;5.08;3.00;;;;;;;16.62;52.39;100558.60;1657374;86;21041;-72
2022/10/09 09:49:22;;;;;;;10.13;3.33;;;;;;;16.66;51.56;100558.47;1650923;86;21104;-73
2022/10/09 09:51:52;;;;;;;4.15;2.62;;;;;;;16.72;51.75;100552.00;1652764;86;21036;-71
2022/10/09 09:54:26;;;;;;;7.53;2.77;;;;;;;16.77;51.30;100563.21;1651322;86;21095;-72
2022/10/09 09:56:59;;;;;;;5.53;3.10;;;;;;;16.80;50.96;100564.97;1651259;86;20992;-72
2022/10/09 09:59:39;;;;;;;5.92;2.83;;;;;;;16.83;50.91;100562.27;1649748;86;21107;-69
2022/10/09 10:02:19;;;;;;;6.75;3.17;;;;;;;16.84;50.63;100554.81;1676389;85;21021;-70
2022/10/09 10:04:52;;;;;;;10.08;3.47;;;;;;;16.84;50.89;100558.97;1682479;85;21113;-72
2022/10/09 10:07:37;;;;;;;15.03;3.65;;;;;;;16.88;50.84;100554.65;1672119;85;21554;-79
2022/10/09 10:10:16;;;;;;;5.20;3.30;;;;;;;16.90;50.92;100559.41;1662866;85;21053;-75
2022/10/09 10:12:53;;;;;;;9.78;3.72;;;;;;;16.92;50.75;100555.90;1671424;85;21035;-71
2022/10/09 10:15:30;;;;;;;6.35;3.47;;;;;;;16.95;50.80;100558.19;1593542;89;21129;-73
2022/10/09 10:18:12;;;;;;;7.40;3.70;;;;;;;17.00;50.72;100557.79;1663863;85;21111;-74
2022/10/09 10:20:48;;;;;;;7.40;3.20;;;;;;;17.02;50.62;100553.40;1675234;84;21458;-72
2022/10/09 10:23:27;;;;;;;5.87;3.05;;;;;;;17.05;50.75;100554.31;1690303;83;21464;-73
2022/10/09 10:25:57;;;;;;;4.97;2.92;;;;;;;17.08;50.73;100546.91;1660586;85;21102;-74
2022/10/09 10:28:32;;;;;;;5.20;2.90;;;;;;;17.16;50.00;100549.88;1681897;84;21037;-72
2022/10/09 10:31:04;;;;;;;5.05;3.08;;;;;;;17.24;50.15;100553.16;1677864;84;21560;-72
2022/10/09 10:33:33;;;;;;;6.37;3.40;;;;;;;17.30;49.89;100546.66;1676511;84;21470;-73
2022/10/09 10:36:03;;;;;;;7.40;3.40;;;;;;;17.34;49.99;100546.48;1670973;85;21144;-73
2022/10/09 10:38:51;;;;;;;7.25;3.72;;;;;;;17.38;50.04;100540.77;1670522;85;21061;-73
2022/10/09 10:41:27;;;;;;;5.65;3.58;;;;;;;17.40;49.95;100541.38;1669925;85;21003;-71
2022/10/09 10:44:05;;;;;;;4.33;2.92;;;;;;;17.42;49.94;100543.91;1671850;85;21098;-72
2022/10/09 10:46:56;;;;;;;5.70;3.10;;;;;;;17.42;50.08;100533.67;1678305;85;21042;-72
2022/10/09 10:49:26;;;;;;;7.17;3.25;;;;;;;17.43;50.11;100531.20;1622457;86;21072;-72
2022/10/09 10:52:09;;;;;;;4.92;2.98;;;;;;;17.42;50.28;100530.90;1661721;85;21047;-73
2022/10/09 10:54:42;;;;;;;6.22;3.33;;;;;;;17.39;50.47;100524.45;1667559;85;21520;-72
2022/10/09 10:57:19;;;;;;;5.58;3.15;;;;;;;17.38;50.64;100526.92;1664166;85;21050;-72
2022/10/09 11:00:02;;;;;;;6.28;3.40;;;;;;;17.34;50.65;100524.33;1669094;85;21059;-73
2022/10/09 11:03:17;;;;;;;4.92;3.30;;;;;;;17.30;50.71;100524.50;1653798;85;21233;-73
2022/10/09 11:06:06;;;;;;;8.73;3.45;;;;;;;17.26;50.91;100526.06;1652917;85;21069;-73
2022/10/09 11:08:53;;;;;;;7.47;3.10;;;;;;;17.20;51.23;100529.78;1652836;86;21264;-72
2022/10/09 11:12:07;;;;;;;10.58;3.45;;;;;;;17.16;51.44;100529.12;1656973;86;21098;-72
2022/10/09 11:15:21;;;;;;;8.60;3.62;;;;;;;17.11;51.62;100525.67;1657278;86;21076;-81
2022/10/09 11:18:18;;;;;;;6.70;3.30;;;;;;;17.07;51.88;100520.31;1648025;86;21037;-67
2022/10/09 11:21:38;;;;;;;7.75;2.95;;;;;;;17.03;52.77;100516.33;1653141;86;21553;-75
2022/10/09 11:24:36;;;;;;;6.85;3.02;;;;;;;16.99;52.78;100516.50;1651411;86;21047;-70
2022/10/09 11:27:20;;;;;;;9.35;3.55;;;;;;;16.98;52.99;100518.42;1653359;86;21079;-74
2022/10/09 11:30:14;;;;;;;8.73;3.98;;;;;;;16.96;53.34;100517.82;1656790;86;21050;-71
2022/10/09 11:33:20;;;;;;;7.20;3.60;;;;;;;16.97;53.58;100515.89;1663339;85;21069;-71
2022/10/09 11:36:06;;;;;;;6.08;3.75;;;;;;;16.97;53.48;100510.36;1668546;85;21791;-72
2022/10/09 11:38:38;;;;;;;11.43;4.37;;;;;;;17.00;53.21;100519.03;1617992;87;21110;-76
2022/10/09 11:41:08;;;;;;;9.70;4.25;;;;;;;17.07;52.89;100517.55;1622186;87;21104;-71
2022/10/09 11:43:52;;;;;;;10.13;4.78;;;;;;;17.10;52.68;100514.30;1625371;86;21098;-74
2022/10/09 11:46:42;;;;;;;7.47;4.05;;;;;;;17.11;52.69;100519.59;1623386;86;21104;-73
2022/10/09 11:49:23;;;;;;;8.78;4.35;;;;;;;17.15;53.01;100514.42;1633866;87;21047;-74
2022/10/09 11:52:20;;;;;;;11.88;4.50;;;;;;;17.19;52.96;100512.02;1618893;87;21098;-76
2022/10/09 11:54:49;;;;;;;7.25;4.50;;;;;;;17.18;52.94;100501.48;1618152;87;21018;-77
2022/10/09 11:57:27;;;;;;;8.95;4.80;;;;;;;17.19;53.15;100505.95;1626298;86;21118;-75